sensor_id;sensor_type;location;lat;lon;timestamp;temperature;humidity
28175;SHT30;59417;44.788;10.334;2023-11-19T00:02:02;9.10;62.24
28175;SHT30;59417;44.788;10.334;2023-11-19T00:04:29;9.51;60.88
28175;SHT30;59417;44.788;10.334;2023-11-19T00:06:57;9.04;62.67
28175;SHT30;59417;44.788;10.334;2023-11-19T00:09:29;8.90;63.51
28175;SHT30;59417;44.788;10.334;2023-11-19T00:11:59;8.87;63.99
28175;SHT30;59417;44.788;10.334;2023-11-19T00:14:26;9.41;61.93
28175;SHT30;59417;44.788;10.334;2023-11-19T00:16:55;9.13;62.89
28175;SHT30;59417;44.788;10.334;2023-11-19T00:19:23;8.93;63.44
28175;SHT30;59417;44.788;10.334;2023-11-19T00:21:54;8.83;64.29
28175;SHT30;59417;44.788;10.334;2023-11-19T00:24:21;8.73;65.08
28175;SHT30;59417;44.788;10.334;2023-11-19T00:26:48;8.76;65.37
28175;SHT30;59417;44.788;10.334;2023-11-19T00:29:17;8.90;65.62
28175;SHT30;59417;44.788;10.334;2023-11-19T00:31:48;8.80;65.60
28175;SHT30;59417;44.788;10.334;2023-11-19T00:34:14;8.87;65.29
28175;SHT30;59417;44.788;10.334;2023-11-19T00:36:42;8.84;65.45
28175;SHT30;59417;44.788;10.334;2023-11-19T00:39:14;8.97;65.03
28175;SHT30;59417;44.788;10.334;2023-11-19T00:41:44;9.03;64.97
28175;SHT30;59417;44.788;10.334;2023-11-19T00:44:12;8.97;65.58
28175;SHT30;59417;44.788;10.334;2023-11-19T00:46:39;9.34;62.73
28175;SHT30;59417;44.788;10.334;2023-11-19T00:49:06;9.28;62.73
28175;SHT30;59417;44.788;10.334;2023-11-19T00:51:33;9.39;62.41
28175;SHT30;59417;44.788;10.334;2023-11-19T00:54:00;9.32;62.64
28175;SHT30;59417;44.788;10.334;2023-11-19T00:56:36;9.27;63.33
28175;SHT30;59417;44.788;10.334;2023-11-19T00:59:03;9.45;62.79
28175;SHT30;59417;44.788;10.334;2023-11-19T01:01:30;9.32;63.55
28175;SHT30;59417;44.788;10.334;2023-11-19T01:03:58;9.17;64.16
28175;SHT30;59417;44.788;10.334;2023-11-19T01:06:34;8.93;64.68
28175;SHT30;59417;44.788;10.334;2023-11-19T01:09:05;8.87;64.84
28175;SHT30;59417;44.788;10.334;2023-11-19T01:11:36;8.90;64.60
28175;SHT30;59417;44.788;10.334;2023-11-19T01:14:03;8.92;65.23
28175;SHT30;59417;44.788;10.334;2023-11-19T01:16:30;8.93;65.69
28175;SHT30;59417;44.788;10.334;2023-11-19T01:18:58;8.74;65.61
28175;SHT30;59417;44.788;10.334;2023-11-19T01:21:25;8.69;65.82
28175;SHT30;59417;44.788;10.334;2023-11-19T01:23:57;8.70;65.73
28175;SHT30;59417;44.788;10.334;2023-11-19T01:26:25;8.70;65.64
28175;SHT30;59417;44.788;10.334;2023-11-19T01:28:52;8.80;65.49
28175;SHT30;59417;44.788;10.334;2023-11-19T01:31:19;8.83;65.75
28175;SHT30;59417;44.788;10.334;2023-11-19T01:33:47;8.72;66.21
28175;SHT30;59417;44.788;10.334;2023-11-19T01:36:14;8.81;65.85
28175;SHT30;59417;44.788;10.334;2023-11-19T01:38:44;8.90;65.58
28175;SHT30;59417;44.788;10.334;2023-11-19T01:41:12;8.70;66.30
28175;SHT30;59417;44.788;10.334;2023-11-19T01:43:43;8.63;66.82
28175;SHT30;59417;44.788;10.334;2023-11-19T01:46:13;8.46;67.44
28175;SHT30;59417;44.788;10.334;2023-11-19T01:48:43;8.45;67.44
28175;SHT30;59417;44.788;10.334;2023-11-19T01:51:12;8.39;67.23
28175;SHT30;59417;44.788;10.334;2023-11-19T01:53:48;8.38;67.63
28175;SHT30;59417;44.788;10.334;2023-11-19T01:56:16;8.48;67.36
28175;SHT30;59417;44.788;10.334;2023-11-19T01:58:46;8.45;67.40
28175;SHT30;59417;44.788;10.334;2023-11-19T02:01:13;8.43;67.32
28175;SHT30;59417;44.788;10.334;2023-11-19T02:03:40;8.41;67.55
28175;SHT30;59417;44.788;10.334;2023-11-19T02:06:07;8.43;67.20
28175;SHT30;59417;44.788;10.334;2023-11-19T02:08:40;8.33;67.62
28175;SHT30;59417;44.788;10.334;2023-11-19T02:11:09;8.41;67.99
28175;SHT30;59417;44.788;10.334;2023-11-19T02:13:37;8.35;67.51
28175;SHT30;59417;44.788;10.334;2023-11-19T02:16:07;8.28;68.47
28175;SHT30;59417;44.788;10.334;2023-11-19T02:18:35;8.29;67.47
28175;SHT30;59417;44.788;10.334;2023-11-19T02:21:06;7.97;68.57
28175;SHT30;59417;44.788;10.334;2023-11-19T02:23:35;7.80;68.69
28175;SHT30;59417;44.788;10.334;2023-11-19T02:28:54;8.02;68.63
28175;SHT30;59417;44.788;10.334;2023-11-19T02:31:20;8.24;67.62
28175;SHT30;59417;44.788;10.334;2023-11-19T02:33:50;8.28;66.76
28175;SHT30;59417;44.788;10.334;2023-11-19T02:36:21;8.36;66.07
28175;SHT30;59417;44.788;10.334;2023-11-19T02:38:49;8.33;65.76
28175;SHT30;59417;44.788;10.334;2023-11-19T02:41:18;8.36;65.51
28175;SHT30;59417;44.788;10.334;2023-11-19T02:43:50;8.42;66.02
28175;SHT30;59417;44.788;10.334;2023-11-19T02:46:21;8.31;66.48
28175;SHT30;59417;44.788;10.334;2023-11-19T02:48:48;8.24;66.70
28175;SHT30;59417;44.788;10.334;2023-11-19T02:51:17;8.28;66.66
28175;SHT30;59417;44.788;10.334;2023-11-19T02:53:45;8.36;66.82
28175;SHT30;59417;44.788;10.334;2023-11-19T02:56:18;8.26;67.12
28175;SHT30;59417;44.788;10.334;2023-11-19T02:58:57;8.53;64.91
28175;SHT30;59417;44.788;10.334;2023-11-19T03:01:24;8.43;64.28
28175;SHT30;59417;44.788;10.334;2023-11-19T03:03:58;8.10;66.20
28175;SHT30;59417;44.788;10.334;2023-11-19T03:06:26;8.33;64.72
28175;SHT30;59417;44.788;10.334;2023-11-19T03:08:54;8.28;64.91
28175;SHT30;59417;44.788;10.334;2023-11-19T03:11:25;8.01;66.25
28175;SHT30;59417;44.788;10.334;2023-11-19T03:13:55;7.73;67.08
28175;SHT30;59417;44.788;10.334;2023-11-19T03:16:22;7.64;67.34
28175;SHT30;59417;44.788;10.334;2023-11-19T03:18:49;8.01;66.45
28175;SHT30;59417;44.788;10.334;2023-11-19T03:21:18;8.28;65.86
28175;SHT30;59417;44.788;10.334;2023-11-19T03:23:51;8.31;65.44
28175;SHT30;59417;44.788;10.334;2023-11-19T03:26:17;8.17;65.74
28175;SHT30;59417;44.788;10.334;2023-11-19T03:28:49;7.59;67.77
28175;SHT30;59417;44.788;10.334;2023-11-19T03:31:18;7.68;67.71
28175;SHT30;59417;44.788;10.334;2023-11-19T03:33:45;7.77;68.12
28175;SHT30;59417;44.788;10.334;2023-11-19T03:36:13;8.05;66.98
28175;SHT30;59417;44.788;10.334;2023-11-19T03:38:39;7.95;67.58
28175;SHT30;59417;44.788;10.334;2023-11-19T03:41:13;7.78;68.31
28175;SHT30;59417;44.788;10.334;2023-11-19T03:43:41;7.90;67.92
28175;SHT30;59417;44.788;10.334;2023-11-19T03:46:24;7.66;69.18
28175;SHT30;59417;44.788;10.334;2023-11-19T03:48:50;7.60;69.47
28175;SHT30;59417;44.788;10.334;2023-11-19T03:51:21;7.54;69.62
28175;SHT30;59417;44.788;10.334;2023-11-19T03:53:48;7.49;69.73
28175;SHT30;59417;44.788;10.334;2023-11-19T03:56:14;7.74;69.51
28175;SHT30;59417;44.788;10.334;2023-11-19T03:58:50;7.77;69.41
28175;SHT30;59417;44.788;10.334;2023-11-19T04:01:18;7.59;69.38
28175;SHT30;59417;44.788;10.334;2023-11-19T04:03:48;7.43;69.80
28175;SHT30;59417;44.788;10.334;2023-11-19T04:06:18;7.37;70.39
28175;SHT30;59417;44.788;10.334;2023-11-19T04:08:52;7.54;70.01
28175;SHT30;59417;44.788;10.334;2023-11-19T04:11:19;7.57;69.98
28175;SHT30;59417;44.788;10.334;2023-11-19T04:13:47;7.78;69.01
28175;SHT30;59417;44.788;10.334;2023-11-19T04:16:15;7.53;70.15
28175;SHT30;59417;44.788;10.334;2023-11-19T04:18:43;7.74;69.33
28175;SHT30;59417;44.788;10.334;2023-11-19T04:21:10;8.00;67.09
28175;SHT30;59417;44.788;10.334;2023-11-19T04:23:38;7.76;68.98
28175;SHT30;59417;44.788;10.334;2023-11-19T04:26:06;7.71;68.85
28175;SHT30;59417;44.788;10.334;2023-11-19T04:28:32;7.50;69.89
28175;SHT30;59417;44.788;10.334;2023-11-19T04:31:00;7.50;69.93
28175;SHT30;59417;44.788;10.334;2023-11-19T04:33:27;7.36;69.01
28175;SHT30;59417;44.788;10.334;2023-11-19T04:35:54;7.61;68.20
28175;SHT30;59417;44.788;10.334;2023-11-19T04:38:21;7.73;68.30
28175;SHT30;59417;44.788;10.334;2023-11-19T04:40:49;7.83;67.66
28175;SHT30;59417;44.788;10.334;2023-11-19T04:43:17;7.64;68.80
28175;SHT30;59417;44.788;10.334;2023-11-19T04:45:48;7.64;69.20
28175;SHT30;59417;44.788;10.334;2023-11-19T04:48:16;7.53;68.95
28175;SHT30;59417;44.788;10.334;2023-11-19T04:50:45;7.56;68.84
28175;SHT30;59417;44.788;10.334;2023-11-19T04:53:15;7.46;69.19
28175;SHT30;59417;44.788;10.334;2023-11-19T04:55:47;7.53;69.60
28175;SHT30;59417;44.788;10.334;2023-11-19T04:58:17;7.77;69.04
28175;SHT30;59417;44.788;10.334;2023-11-19T05:00:45;7.57;69.33
28175;SHT30;59417;44.788;10.334;2023-11-19T05:03:13;7.77;68.25
28175;SHT30;59417;44.788;10.334;2023-11-19T05:05:40;7.39;69.81
28175;SHT30;59417;44.788;10.334;2023-11-19T05:08:06;7.33;70.05
28175;SHT30;59417;44.788;10.334;2023-11-19T05:10:33;7.43;69.78
28175;SHT30;59417;44.788;10.334;2023-11-19T05:13:02;7.26;70.15
28175;SHT30;59417;44.788;10.334;2023-11-19T05:15:29;7.25;70.31
28175;SHT30;59417;44.788;10.334;2023-11-19T05:17:55;7.25;70.94
28175;SHT30;59417;44.788;10.334;2023-11-19T05:20:23;7.26;70.27
28175;SHT30;59417;44.788;10.334;2023-11-19T05:22:50;7.49;69.16
28175;SHT30;59417;44.788;10.334;2023-11-19T05:25:20;7.63;68.94
28175;SHT30;59417;44.788;10.334;2023-11-19T05:27:50;7.76;68.37
28175;SHT30;59417;44.788;10.334;2023-11-19T05:30:23;7.57;68.79
28175;SHT30;59417;44.788;10.334;2023-11-19T05:32:54;7.46;68.08
28175;SHT30;59417;44.788;10.334;2023-11-19T05:35:20;7.68;67.37
28175;SHT30;59417;44.788;10.334;2023-11-19T05:37:47;7.44;69.09
28175;SHT30;59417;44.788;10.334;2023-11-19T05:40:17;7.29;69.67
28175;SHT30;59417;44.788;10.334;2023-11-19T05:42:46;7.32;69.79
28175;SHT30;59417;44.788;10.334;2023-11-19T05:45:15;7.35;69.69
28175;SHT30;59417;44.788;10.334;2023-11-19T05:47:44;7.57;69.00
28175;SHT30;59417;44.788;10.334;2023-11-19T05:50:21;7.43;69.26
28175;SHT30;59417;44.788;10.334;2023-11-19T05:52:51;7.22;69.89
28175;SHT30;59417;44.788;10.334;2023-11-19T05:55:20;7.23;70.07
28175;SHT30;59417;44.788;10.334;2023-11-19T05:57:47;7.39;69.69
28175;SHT30;59417;44.788;10.334;2023-11-19T06:00:14;7.40;69.84
28175;SHT30;59417;44.788;10.334;2023-11-19T06:02:41;7.47;70.14
28175;SHT30;59417;44.788;10.334;2023-11-19T06:05:09;7.54;68.81
28175;SHT30;59417;44.788;10.334;2023-11-19T06:07:36;7.54;68.37
28175;SHT30;59417;44.788;10.334;2023-11-19T06:10:08;6.89;70.55
28175;SHT30;59417;44.788;10.334;2023-11-19T06:12:39;7.25;70.03
28175;SHT30;59417;44.788;10.334;2023-11-19T06:15:08;7.40;69.91
28175;SHT30;59417;44.788;10.334;2023-11-19T06:17:39;7.01;70.66
28175;SHT30;59417;44.788;10.334;2023-11-19T06:20:13;6.82;71.89
28175;SHT30;59417;44.788;10.334;2023-11-19T06:22:41;7.09;71.63
28175;SHT30;59417;44.788;10.334;2023-11-19T06:25:10;7.01;71.73
28175;SHT30;59417;44.788;10.334;2023-11-19T06:27:48;6.96;71.40
28175;SHT30;59417;44.788;10.334;2023-11-19T06:30:15;6.88;71.66
28175;SHT30;59417;44.788;10.334;2023-11-19T06:32:42;6.75;72.14
28175;SHT30;59417;44.788;10.334;2023-11-19T06:35:09;6.71;72.60
28175;SHT30;59417;44.788;10.334;2023-11-19T06:37:39;6.78;72.71
28175;SHT30;59417;44.788;10.334;2023-11-19T06:40:07;7.16;71.97
28175;SHT30;59417;44.788;10.334;2023-11-19T06:42:35;7.01;71.85
28175;SHT30;59417;44.788;10.334;2023-11-19T06:45:02;6.94;72.27
28175;SHT30;59417;44.788;10.334;2023-11-19T06:47:31;6.89;72.73
28175;SHT30;59417;44.788;10.334;2023-11-19T06:49:58;6.88;72.87
28175;SHT30;59417;44.788;10.334;2023-11-19T06:52:24;6.96;72.79
28175;SHT30;59417;44.788;10.334;2023-11-19T06:54:51;7.61;70.64
28175;SHT30;59417;44.788;10.334;2023-11-19T06:57:18;7.40;70.67
28175;SHT30;59417;44.788;10.334;2023-11-19T06:59:46;7.18;70.74
28175;SHT30;59417;44.788;10.334;2023-11-19T07:02:13;7.60;69.00
28175;SHT30;59417;44.788;10.334;2023-11-19T07:04:40;7.71;68.61
28175;SHT30;59417;44.788;10.334;2023-11-19T07:07:08;7.53;69.29
28175;SHT30;59417;44.788;10.334;2023-11-19T07:09:35;7.26;70.90
28175;SHT30;59417;44.788;10.334;2023-11-19T07:12:03;7.44;69.44
28175;SHT30;59417;44.788;10.334;2023-11-19T07:14:35;7.59;68.91
28175;SHT30;59417;44.788;10.334;2023-11-19T07:17:09;7.78;68.76
28175;SHT30;59417;44.788;10.334;2023-11-19T07:19:36;7.61;69.65
28175;SHT30;59417;44.788;10.334;2023-11-19T07:22:04;7.49;69.55
28175;SHT30;59417;44.788;10.334;2023-11-19T07:24:33;7.47;69.47
28175;SHT30;59417;44.788;10.334;2023-11-19T07:27:01;7.61;68.71
28175;SHT30;59417;44.788;10.334;2023-11-19T07:29:36;7.73;68.37
28175;SHT30;59417;44.788;10.334;2023-11-19T07:32:11;7.73;68.77
28175;SHT30;59417;44.788;10.334;2023-11-19T07:34:41;7.71;68.92
28175;SHT30;59417;44.788;10.334;2023-11-19T07:37:08;7.80;69.31
28175;SHT30;59417;44.788;10.334;2023-11-19T07:39:42;7.59;69.54
28175;SHT30;59417;44.788;10.334;2023-11-19T07:42:10;7.61;69.18
28175;SHT30;59417;44.788;10.334;2023-11-19T07:44:37;7.90;67.60
28175;SHT30;59417;44.788;10.334;2023-11-19T07:47:06;8.11;66.63
28175;SHT30;59417;44.788;10.334;2023-11-19T07:49:35;8.18;66.32
28175;SHT30;59417;44.788;10.334;2023-11-19T07:52:01;8.21;65.57
28175;SHT30;59417;44.788;10.334;2023-11-19T07:54:34;8.33;65.45
28175;SHT30;59417;44.788;10.334;2023-11-19T07:57:04;8.31;65.62
28175;SHT30;59417;44.788;10.334;2023-11-19T07:59:33;8.20;66.22
28175;SHT30;59417;44.788;10.334;2023-11-19T08:02:05;8.29;66.52
28175;SHT30;59417;44.788;10.334;2023-11-19T08:04:38;8.62;65.17
28175;SHT30;59417;44.788;10.334;2023-11-19T08:07:11;8.60;64.98
28175;SHT30;59417;44.788;10.334;2023-11-19T08:09:38;8.74;64.33
28175;SHT30;59417;44.788;10.334;2023-11-19T08:12:05;8.79;64.29
28175;SHT30;59417;44.788;10.334;2023-11-19T08:14:36;9.13;62.24
28175;SHT30;59417;44.788;10.334;2023-11-19T08:17:03;9.23;62.99
28175;SHT30;59417;44.788;10.334;2023-11-19T08:19:35;9.08;63.73
28175;SHT30;59417;44.788;10.334;2023-11-19T08:22:08;9.14;63.75
28175;SHT30;59417;44.788;10.334;2023-11-19T08:24:40;9.28;64.14
28175;SHT30;59417;44.788;10.334;2023-11-19T08:27:08;9.45;64.62
28175;SHT30;59417;44.788;10.334;2023-11-19T08:29:37;9.54;64.93
28175;SHT30;59417;44.788;10.334;2023-11-19T08:32:04;9.62;64.70
28175;SHT30;59417;44.788;10.334;2023-11-19T08:34:32;9.70;64.07
28175;SHT30;59417;44.788;10.334;2023-11-19T08:37:02;9.93;62.71
28175;SHT30;59417;44.788;10.334;2023-11-19T08:39:33;10.13;61.95
28175;SHT30;59417;44.788;10.334;2023-11-19T08:42:04;10.00;62.53
28175;SHT30;59417;44.788;10.334;2023-11-19T08:44:29;10.00;62.38
28175;SHT30;59417;44.788;10.334;2023-11-19T08:47:00;10.06;61.52
28175;SHT30;59417;44.788;10.334;2023-11-19T08:49:28;10.09;61.52
28175;SHT30;59417;44.788;10.334;2023-11-19T08:51:55;10.12;61.15
28175;SHT30;59417;44.788;10.334;2023-11-19T08:54:22;10.21;60.92
28175;SHT30;59417;44.788;10.334;2023-11-19T08:56:51;10.37;60.51
28175;SHT30;59417;44.788;10.334;2023-11-19T08:59:18;10.40;60.63
28175;SHT30;59417;44.788;10.334;2023-11-19T09:01:48;10.54;60.16
28175;SHT30;59417;44.788;10.334;2023-11-19T09:04:17;10.63;60.15
28175;SHT30;59417;44.788;10.334;2023-11-19T09:06:43;10.68;60.27
28175;SHT30;59417;44.788;10.334;2023-11-19T09:09:12;10.92;58.81
28175;SHT30;59417;44.788;10.334;2023-11-19T09:11:38;10.91;57.55
28175;SHT30;59417;44.788;10.334;2023-11-19T09:14:08;10.99;57.21
28175;SHT30;59417;44.788;10.334;2023-11-19T09:16:35;10.94;58.41
28175;SHT30;59417;44.788;10.334;2023-11-19T09:19:03;11.15;55.45
28175;SHT30;59417;44.788;10.334;2023-11-19T09:21:33;10.92;55.85
28175;SHT30;59417;44.788;10.334;2023-11-19T09:24:04;10.84;57.46
28175;SHT30;59417;44.788;10.334;2023-11-19T09:26:40;10.85;58.39
28175;SHT30;59417;44.788;10.334;2023-11-19T09:29:11;11.02;57.19
28175;SHT30;59417;44.788;10.334;2023-11-19T09:31:42;11.12;56.01
28175;SHT30;59417;44.788;10.334;2023-11-19T09:34:16;11.18;56.34
28175;SHT30;59417;44.788;10.334;2023-11-19T09:36:45;11.12;57.76
28175;SHT30;59417;44.788;10.334;2023-11-19T09:39:12;11.23;56.77
28175;SHT30;59417;44.788;10.334;2023-11-19T09:41:41;11.23;55.89
28175;SHT30;59417;44.788;10.334;2023-11-19T09:44:12;11.11;57.36
28175;SHT30;59417;44.788;10.334;2023-11-19T09:47:11;11.23;57.51
28175;SHT30;59417;44.788;10.334;2023-11-19T09:49:49;11.26;58.26
28175;SHT30;59417;44.788;10.334;2023-11-19T09:52:32;11.27;58.27
28175;SHT30;59417;44.788;10.334;2023-11-19T09:55:23;11.50;58.07
28175;SHT30;59417;44.788;10.334;2023-11-19T09:58:02;11.64;56.14
28175;SHT30;59417;44.788;10.334;2023-11-19T10:00:54;11.97;54.81
28175;SHT30;59417;44.788;10.334;2023-11-19T10:03:58;11.98;54.28
28175;SHT30;59417;44.788;10.334;2023-11-19T10:07:32;12.02;55.11
28175;SHT30;59417;44.788;10.334;2023-11-19T10:10:52;11.93;55.17
28175;SHT30;59417;44.788;10.334;2023-11-19T10:13:48;11.86;55.59
28175;SHT30;59417;44.788;10.334;2023-11-19T10:16:29;11.90;55.79
28175;SHT30;59417;44.788;10.334;2023-11-19T10:19:33;12.07;54.67
28175;SHT30;59417;44.788;10.334;2023-11-19T10:22:05;12.24;53.40
28175;SHT30;59417;44.788;10.334;2023-11-19T10:24:35;12.24;53.13
28175;SHT30;59417;44.788;10.334;2023-11-19T10:27:16;12.29;52.97
28175;SHT30;59417;44.788;10.334;2023-11-19T10:29:59;12.39;52.89
28175;SHT30;59417;44.788;10.334;2023-11-19T10:32:29;12.48;53.85
28175;SHT30;59417;44.788;10.334;2023-11-19T10:35:05;12.59;53.44
28175;SHT30;59417;44.788;10.334;2023-11-19T10:37:33;12.79;52.96
28175;SHT30;59417;44.788;10.334;2023-11-19T10:40:06;13.00;52.90
28175;SHT30;59417;44.788;10.334;2023-11-19T10:42:38;13.23;53.28
28175;SHT30;59417;44.788;10.334;2023-11-19T10:45:22;13.44;51.89
28175;SHT30;59417;44.788;10.334;2023-11-19T10:47:51;13.43;52.52
28175;SHT30;59417;44.788;10.334;2023-11-19T10:50:18;13.50;51.37
28175;SHT30;59417;44.788;10.334;2023-11-19T10:52:56;13.64;50.23
28175;SHT30;59417;44.788;10.334;2023-11-19T10:55:37;13.61;50.71
28175;SHT30;59417;44.788;10.334;2023-11-19T10:58:09;13.62;50.33
28175;SHT30;59417;44.788;10.334;2023-11-19T11:03:16;13.77;50.27
28175;SHT30;59417;44.788;10.334;2023-11-19T11:05:47;13.71;50.08
28175;SHT30;59417;44.788;10.334;2023-11-19T11:08:14;13.84;50.75
28175;SHT30;59417;44.788;10.334;2023-11-19T11:10:56;13.85;51.25
28175;SHT30;59417;44.788;10.334;2023-11-19T11:13:31;14.05;50.88
28175;SHT30;59417;44.788;10.334;2023-11-19T11:16:12;14.22;50.40
28175;SHT30;59417;44.788;10.334;2023-11-19T11:18:39;14.32;50.77
28175;SHT30;59417;44.788;10.334;2023-11-19T11:21:50;14.41;51.56
28175;SHT30;59417;44.788;10.334;2023-11-19T11:35:03;14.77;50.01
28175;SHT30;59417;44.788;10.334;2023-11-19T11:38:06;14.78;49.71
28175;SHT30;59417;44.788;10.334;2023-11-19T11:40:33;14.78;48.99
28175;SHT30;59417;44.788;10.334;2023-11-19T11:42:59;14.87;49.92
28175;SHT30;59417;44.788;10.334;2023-11-19T11:45:51;14.92;49.18
28175;SHT30;59417;44.788;10.334;2023-11-19T11:48:19;14.77;50.05
28175;SHT30;59417;44.788;10.334;2023-11-19T11:50:53;14.73;51.50
28175;SHT30;59417;44.788;10.334;2023-11-19T11:53:27;14.73;51.17
28175;SHT30;59417;44.788;10.334;2023-11-19T11:56:00;14.84;51.15
28175;SHT30;59417;44.788;10.334;2023-11-19T11:58:46;14.87;51.53
28175;SHT30;59417;44.788;10.334;2023-11-19T12:01:15;14.92;51.24
28175;SHT30;59417;44.788;10.334;2023-11-19T12:03:46;15.07;51.26
28175;SHT30;59417;44.788;10.334;2023-11-19T12:06:20;15.15;50.92
28175;SHT30;59417;44.788;10.334;2023-11-19T12:08:46;15.09;51.20
28175;SHT30;59417;44.788;10.334;2023-11-19T12:11:12;15.12;51.47
28175;SHT30;59417;44.788;10.334;2023-11-19T12:13:56;15.25;50.03
28175;SHT30;59417;44.788;10.334;2023-11-19T12:16:28;15.19;51.05
28175;SHT30;59417;44.788;10.334;2023-11-19T12:19:03;15.23;51.14
28175;SHT30;59417;44.788;10.334;2023-11-19T12:21:51;15.32;50.82
28175;SHT30;59417;44.788;10.334;2023-11-19T12:24:21;15.27;51.61
28175;SHT30;59417;44.788;10.334;2023-11-19T12:26:49;15.39;52.40
28175;SHT30;59417;44.788;10.334;2023-11-19T12:29:25;15.48;51.49
28175;SHT30;59417;44.788;10.334;2023-11-19T12:31:58;15.63;52.06
28175;SHT30;59417;44.788;10.334;2023-11-19T12:34:29;15.67;52.11
28175;SHT30;59417;44.788;10.334;2023-11-19T12:36:56;15.73;51.60
28175;SHT30;59417;44.788;10.334;2023-11-19T12:39:32;15.62;51.78
28175;SHT30;59417;44.788;10.334;2023-11-19T12:42:00;15.66;52.49
28175;SHT30;59417;44.788;10.334;2023-11-19T12:44:27;15.76;52.77
28175;SHT30;59417;44.788;10.334;2023-11-19T12:47:05;15.86;52.94
28175;SHT30;59417;44.788;10.334;2023-11-19T12:49:43;15.83;52.27
28175;SHT30;59417;44.788;10.334;2023-11-19T12:52:13;15.89;53.01
28175;SHT30;59417;44.788;10.334;2023-11-19T12:54:43;15.96;51.84
28175;SHT30;59417;44.788;10.334;2023-11-19T12:57:11;15.61;52.34
28175;SHT30;59417;44.788;10.334;2023-11-19T12:59:37;15.42;53.23
28175;SHT30;59417;44.788;10.334;2023-11-19T13:02:05;15.39;53.50
28175;SHT30;59417;44.788;10.334;2023-11-19T13:04:33;15.58;53.66
28175;SHT30;59417;44.788;10.334;2023-11-19T13:07:01;15.53;53.89
28175;SHT30;59417;44.788;10.334;2023-11-19T13:09:30;15.61;53.75
28175;SHT30;59417;44.788;10.334;2023-11-19T13:11:56;15.67;53.91
28175;SHT30;59417;44.788;10.334;2023-11-19T13:14:36;15.70;54.56
28175;SHT30;59417;44.788;10.334;2023-11-19T13:17:08;15.76;54.58
28175;SHT30;59417;44.788;10.334;2023-11-19T13:19:34;15.82;54.49
28175;SHT30;59417;44.788;10.334;2023-11-19T13:22:03;15.79;53.74
28175;SHT30;59417;44.788;10.334;2023-11-19T13:24:30;15.74;53.96
28175;SHT30;59417;44.788;10.334;2023-11-19T13:27:00;15.59;54.93
28175;SHT30;59417;44.788;10.334;2023-11-19T13:29:26;15.69;55.48
28175;SHT30;59417;44.788;10.334;2023-11-19T13:31:55;15.70;55.78
28175;SHT30;59417;44.788;10.334;2023-11-19T13:34:21;15.76;55.45
28175;SHT30;59417;44.788;10.334;2023-11-19T13:36:47;15.87;54.96
28175;SHT30;59417;44.788;10.334;2023-11-19T13:39:19;15.73;54.18
28175;SHT30;59417;44.788;10.334;2023-11-19T13:41:49;15.73;54.04
28175;SHT30;59417;44.788;10.334;2023-11-19T13:44:16;15.74;54.57
28175;SHT30;59417;44.788;10.334;2023-11-19T13:46:45;15.73;54.71
28175;SHT30;59417;44.788;10.334;2023-11-19T13:49:11;15.79;55.84
28175;SHT30;59417;44.788;10.334;2023-11-19T13:51:37;15.73;55.67
28175;SHT30;59417;44.788;10.334;2023-11-19T13:54:03;15.70;55.52
28175;SHT30;59417;44.788;10.334;2023-11-19T13:56:32;15.70;55.28
28175;SHT30;59417;44.788;10.334;2023-11-19T13:59:02;15.63;55.81
28175;SHT30;59417;44.788;10.334;2023-11-19T14:01:28;15.56;56.02
28175;SHT30;59417;44.788;10.334;2023-11-19T14:03:54;15.55;55.86
28175;SHT30;59417;44.788;10.334;2023-11-19T14:06:20;15.56;56.15
28175;SHT30;59417;44.788;10.334;2023-11-19T14:08:46;15.49;56.60
28175;SHT30;59417;44.788;10.334;2023-11-19T14:11:15;15.35;57.15
28175;SHT30;59417;44.788;10.334;2023-11-19T14:13:46;15.29;56.71
28175;SHT30;59417;44.788;10.334;2023-11-19T14:16:16;15.29;57.20
28175;SHT30;59417;44.788;10.334;2023-11-19T14:18:44;15.19;57.93
28175;SHT30;59417;44.788;10.334;2023-11-19T14:21:11;15.12;58.50
28175;SHT30;59417;44.788;10.334;2023-11-19T14:23:37;15.00;58.87
28175;SHT30;59417;44.788;10.334;2023-11-19T14:26:07;14.91;59.00
28175;SHT30;59417;44.788;10.334;2023-11-19T14:28:33;14.87;59.26
28175;SHT30;59417;44.788;10.334;2023-11-19T14:30:59;14.81;59.09
28175;SHT30;59417;44.788;10.334;2023-11-19T14:33:25;14.70;60.22
28175;SHT30;59417;44.788;10.334;2023-11-19T14:35:52;14.61;60.32
28175;SHT30;59417;44.788;10.334;2023-11-19T14:38:19;14.60;60.81
28175;SHT30;59417;44.788;10.334;2023-11-19T14:40:45;14.53;60.47
28175;SHT30;59417;44.788;10.334;2023-11-19T14:43:11;14.52;60.75
28175;SHT30;59417;44.788;10.334;2023-11-19T14:45:38;14.50;61.01
28175;SHT30;59417;44.788;10.334;2023-11-19T14:48:06;14.47;60.37
28175;SHT30;59417;44.788;10.334;2023-11-19T14:50:32;14.44;60.98
28175;SHT30;59417;44.788;10.334;2023-11-19T14:52:59;14.46;60.90
28175;SHT30;59417;44.788;10.334;2023-11-19T14:55:47;14.41;61.89
28175;SHT30;59417;44.788;10.334;2023-11-19T14:58:28;14.32;62.37
28175;SHT30;59417;44.788;10.334;2023-11-19T15:00:55;14.29;62.25
28175;SHT30;59417;44.788;10.334;2023-11-19T15:03:50;14.22;62.62
28175;SHT30;59417;44.788;10.334;2023-11-19T15:06:23;14.19;62.89
28175;SHT30;59417;44.788;10.334;2023-11-19T15:09:10;14.13;63.80
28175;SHT30;59417;44.788;10.334;2023-11-19T15:11:55;14.08;63.76
28175;SHT30;59417;44.788;10.334;2023-11-19T15:14:28;14.05;64.17
28175;SHT30;59417;44.788;10.334;2023-11-19T15:16:57;14.02;65.05
28175;SHT30;59417;44.788;10.334;2023-11-19T15:19:24;13.98;65.40
28175;SHT30;59417;44.788;10.334;2023-11-19T15:21:51;13.92;65.69
28175;SHT30;59417;44.788;10.334;2023-11-19T15:24:21;13.84;66.16
28175;SHT30;59417;44.788;10.334;2023-11-19T15:26:48;13.79;66.16
28175;SHT30;59417;44.788;10.334;2023-11-19T15:29:15;13.77;66.61
28175;SHT30;59417;44.788;10.334;2023-11-19T15:31:43;13.70;66.66
28175;SHT30;59417;44.788;10.334;2023-11-19T15:34:10;13.62;66.87
28175;SHT30;59417;44.788;10.334;2023-11-19T15:36:38;13.58;67.28
28175;SHT30;59417;44.788;10.334;2023-11-19T15:39:09;13.55;67.61
28175;SHT30;59417;44.788;10.334;2023-11-19T15:41:40;13.54;67.46
28175;SHT30;59417;44.788;10.334;2023-11-19T15:44:09;13.47;66.72
28175;SHT30;59417;44.788;10.334;2023-11-19T15:46:40;13.50;66.27
28175;SHT30;59417;44.788;10.334;2023-11-19T15:49:17;13.61;67.15
28175;SHT30;59417;44.788;10.334;2023-11-19T15:51:43;13.44;67.55
28175;SHT30;59417;44.788;10.334;2023-11-19T15:54:15;13.21;68.47
28175;SHT30;59417;44.788;10.334;2023-11-19T15:56:41;13.13;68.37
28175;SHT30;59417;44.788;10.334;2023-11-19T15:59:08;13.13;68.50
28175;SHT30;59417;44.788;10.334;2023-11-19T16:01:41;13.10;68.57
28175;SHT30;59417;44.788;10.334;2023-11-19T16:05:06;13.09;68.67